Terminal Aerodrome Forecast
Issued by NWS

Home | Current Version | Previous Version | Text Only | Print | Product List | Glossary On
Versions: 1 2 3 4 5 6 7 8 9 10 11 12 13 14 15 16 17 18 19 20 21 22 23 24 25
000
FTUS41 KBUF 110538
TAFIAG
TAF
KIAG 110538Z 1106/1206 23006KT P6SM BKN060
     FM111200 19008KT P6SM VCSH OVC025
     FM111800 17008KT 2SM -SN OVC015
     FM120400 17014G22KT 1SM -SN OVC010=

USA.gov is the U.S. government's official web portal to all federal, state and local government web resources and services.